createdAt,value
2023-01-21T00:01:52.496Z,68.93
2023-01-21T00:04:20.405Z,67.35
2023-01-21T00:06:49.247Z,68.32
2023-01-21T00:09:18.507Z,67.89
2023-01-21T00:11:46.420Z,68.18
2023-01-21T00:14:14.312Z,68.01
2023-01-21T00:16:42.249Z,68.92
2023-01-21T00:19:10.306Z,67.96
2023-01-21T00:21:38.268Z,67.52
2023-01-21T00:24:06.443Z,69.43
2023-01-21T00:26:35.693Z,69.37
2023-01-21T00:29:03.564Z,69.20
2023-01-21T00:31:31.688Z,70.07
2023-01-21T00:33:59.622Z,69.14
2023-01-21T00:36:30.263Z,69.23
2023-01-21T00:38:58.470Z,69.07
2023-01-21T00:41:26.531Z,69.52
2023-01-21T00:43:55.780Z,68.98
2023-01-21T00:46:23.644Z,68.61
2023-01-21T00:48:51.588Z,68.56
2023-01-21T00:51:19.528Z,69.01
2023-01-21T00:53:47.439Z,69.25
2023-01-21T00:56:15.376Z,68.84
2023-01-21T00:58:44.311Z,68.27
2023-01-21T01:01:15.657Z,68.10
2023-01-21T01:03:44.442Z,68.25
2023-01-21T01:06:14.660Z,68.96
2023-01-21T01:08:42.899Z,68.70
2023-01-21T01:11:11.279Z,69.87
2023-01-21T01:13:39.851Z,70.75
2023-01-21T01:16:07.970Z,70.03
2023-01-21T01:18:38.450Z,70.05
2023-01-21T01:21:07.861Z,68.57
2023-01-21T01:23:36.007Z,68.81
2023-01-21T01:26:07.387Z,69.18
2023-01-21T01:28:36.204Z,68.76
2023-01-21T01:31:06.553Z,67.85
2023-01-21T01:33:34.937Z,68.87
2023-01-21T01:36:04.970Z,68.44
2023-01-21T01:38:34.808Z,67.89
2023-01-21T01:41:03.128Z,67.33
2023-01-21T01:43:57.431Z,67.70
2023-01-21T01:46:27.296Z,67.07
2023-01-21T01:49:01.520Z,68.34
2023-01-21T01:51:40.233Z,66.50
2023-01-21T01:54:09.783Z,66.81
2023-01-21T01:56:41.304Z,67.29
2023-01-21T01:59:09.201Z,68.67
2023-01-21T02:01:37.917Z,68.52
2023-01-21T02:04:09.407Z,67.95
2023-01-21T02:06:39.570Z,68.04
2023-01-21T02:09:08.394Z,67.15
2023-01-21T02:11:38.229Z,66.15
2023-01-21T02:14:06.626Z,68.26
2023-01-21T02:16:52.879Z,67.65
2023-01-21T02:19:57.227Z,65.81
2023-01-21T02:22:33.496Z,66.83
2023-01-21T02:25:31.085Z,66.77
2023-01-21T02:28:28.170Z,68.15
2023-01-21T02:31:16.865Z,68.81
2023-01-21T02:33:56.471Z,68.21
2023-01-21T02:36:37.152Z,67.31
2023-01-21T02:39:13.797Z,66.66
2023-01-21T02:41:57.337Z,67.79
2023-01-21T02:44:33.301Z,67.51
2023-01-21T02:47:07.929Z,67.34
2023-01-21T02:49:41.222Z,68.13
2023-01-21T02:52:09.398Z,67.50
2023-01-21T02:54:55.189Z,67.00
2023-01-21T02:57:36.146Z,67.29
2023-01-21T03:00:10.964Z,68.27
2023-01-21T03:03:03.625Z,67.44
2023-01-21T03:05:46.653Z,65.83
2023-01-21T03:08:21.713Z,66.83
2023-01-21T03:10:56.614Z,65.46
2023-01-21T03:13:51.626Z,65.29
2023-01-21T03:16:42.666Z,65.17
2023-01-21T03:19:14.657Z,66.71
2023-01-21T03:21:44.093Z,66.51
2023-01-21T03:24:14.614Z,65.17
2023-01-21T03:26:46.802Z,65.14
2023-01-21T03:29:19.301Z,65.30
2023-01-21T03:31:51.795Z,64.65
2023-01-21T03:34:21.415Z,64.04
2023-01-21T03:36:56.437Z,65.46
2023-01-21T03:39:34.693Z,66.20
2023-01-21T03:42:03.667Z,66.04
2023-01-21T03:44:31.657Z,65.80
2023-01-21T03:47:04.863Z,65.88
2023-01-21T03:49:34.778Z,66.17
2023-01-21T03:52:06.827Z,65.60
2023-01-21T03:54:34.828Z,65.55
2023-01-21T03:57:02.695Z,66.13
2023-01-21T03:59:30.571Z,65.12
2023-01-21T04:01:58.516Z,65.77
2023-01-21T04:04:26.415Z,65.75
2023-01-21T04:06:54.338Z,65.68
2023-01-21T04:09:23.563Z,65.85
2023-01-21T04:11:51.430Z,66.31
2023-01-21T04:14:19.297Z,66.54
2023-01-21T04:16:47.674Z,65.47
2023-01-21T04:19:15.517Z,65.31
2023-01-21T04:21:43.416Z,65.07
2023-01-21T04:24:11.439Z,65.59
2023-01-21T04:26:40.683Z,65.96
2023-01-21T04:29:08.611Z,66.35
2023-01-21T04:31:36.522Z,66.83
2023-01-21T04:34:04.542Z,66.20
2023-01-21T04:36:32.494Z,65.06
2023-01-21T04:39:00.342Z,66.07
2023-01-21T04:41:28.481Z,65.98
2023-01-21T04:43:57.749Z,67.15
2023-01-21T04:46:25.703Z,66.39
2023-01-21T04:48:53.623Z,66.32
2023-01-21T04:51:21.651Z,66.41
2023-01-21T04:53:49.586Z,67.16
2023-01-21T04:56:17.454Z,67.24
2023-01-21T04:58:45.300Z,66.23
2023-01-21T05:01:14.578Z,66.66
2023-01-21T05:03:42.488Z,67.21
2023-01-21T05:06:10.469Z,66.99
2023-01-21T05:08:38.431Z,67.92
2023-01-21T05:11:08.568Z,67.39
2023-01-21T05:13:36.471Z,67.21
2023-01-21T05:16:05.771Z,67.59
2023-01-21T05:18:35.159Z,68.61
2023-01-21T05:21:03.084Z,67.68
2023-01-21T05:23:31.045Z,68.08
2023-01-21T05:25:58.943Z,67.68
2023-01-21T05:28:27.065Z,66.99
2023-01-21T05:30:55.047Z,67.07
2023-01-21T05:33:26.340Z,67.22
2023-01-21T05:35:55.675Z,67.36
2023-01-21T05:38:23.589Z,66.40
2023-01-21T05:40:51.492Z,66.50
2023-01-21T05:43:19.360Z,66.76
2023-01-21T05:45:47.658Z,66.83
2023-01-21T05:48:15.541Z,66.90
2023-01-21T05:50:43.449Z,67.36
2023-01-21T05:53:12.704Z,67.27
2023-01-21T05:55:40.901Z,66.33
2023-01-21T05:58:09.026Z,66.91
2023-01-21T06:00:36.908Z,68.03
2023-01-21T06:03:05.336Z,67.57
2023-01-21T06:05:33.178Z,66.48
2023-01-21T06:08:01.070Z,66.98
2023-01-21T06:10:30.344Z,66.40
2023-01-21T06:12:58.255Z,66.96
2023-01-21T06:15:26.690Z,67.66
2023-01-21T06:17:54.812Z,67.49
2023-01-21T06:20:23.003Z,67.66
2023-01-21T06:22:50.940Z,67.77
2023-01-21T06:25:18.831Z,68.08
2023-01-21T06:27:48.062Z,68.10
2023-01-21T06:30:16.534Z,66.87
2023-01-21T06:32:44.559Z,67.82
2023-01-21T06:35:12.410Z,67.04
2023-01-21T06:37:40.257Z,66.90
2023-01-21T06:40:09.334Z,66.38
2023-01-21T06:42:37.247Z,66.77
2023-01-21T06:45:07.891Z,67.37
2023-01-21T06:47:36.393Z,67.37
2023-01-21T06:50:04.456Z,67.39
2023-01-21T06:52:32.322Z,66.63
2023-01-21T06:55:00.264Z,65.81
2023-01-21T06:57:28.164Z,66.80
2023-01-21T06:59:56.076Z,66.76
2023-01-21T07:02:25.396Z,65.95
2023-01-21T07:04:53.317Z,66.20
2023-01-21T07:07:21.191Z,66.67
2023-01-21T07:09:49.132Z,67.37
2023-01-21T07:12:17.033Z,67.22
2023-01-21T07:14:44.982Z,66.47
2023-01-21T07:17:12.995Z,67.02
2023-01-21T07:19:42.238Z,65.97
2023-01-21T07:22:10.140Z,66.44
2023-01-21T07:24:38.129Z,67.00
2023-01-21T07:27:06.713Z,65.16
2023-01-21T07:29:34.666Z,65.69
2023-01-21T07:32:02.962Z,66.63
2023-01-21T07:34:30.950Z,66.48
2023-01-21T07:37:00.295Z,65.71
2023-01-21T07:39:28.175Z,66.01
2023-01-21T07:41:56.034Z,66.33
2023-01-21T07:44:23.984Z,65.60
2023-01-21T07:46:51.941Z,66.47
2023-01-21T07:49:19.910Z,65.99
2023-01-21T07:51:48.840Z,66.10
2023-01-21T07:54:18.068Z,65.70
2023-01-21T07:56:46.503Z,66.34
2023-01-21T07:59:15.133Z,66.40
2023-01-21T08:01:43.241Z,65.78
2023-01-21T08:04:11.168Z,66.06
2023-01-21T08:06:41.310Z,65.38
2023-01-21T08:09:09.558Z,65.62
2023-01-21T08:11:38.793Z,65.36
2023-01-21T08:14:06.690Z,66.02
2023-01-21T08:16:34.712Z,65.81
2023-01-21T08:19:02.647Z,65.54
2023-01-21T08:21:30.579Z,66.00
2023-01-21T08:23:58.483Z,65.80
2023-01-21T08:26:26.348Z,65.89
2023-01-21T08:28:56.095Z,65.61
2023-01-21T08:31:24.090Z,65.06
2023-01-21T08:33:51.966Z,66.72
2023-01-21T08:36:19.893Z,65.33
2023-01-21T08:38:48.810Z,65.96
2023-01-21T08:41:17.776Z,66.02
2023-01-21T08:43:45.729Z,65.31
2023-01-21T08:46:15.068Z,65.75
2023-01-21T08:48:42.950Z,65.94
2023-01-21T08:51:11.112Z,65.94
2023-01-21T08:53:39.074Z,66.10
2023-01-21T08:56:07.492Z,66.07
2023-01-21T08:58:35.403Z,65.10
2023-01-21T09:01:07.929Z,64.53
2023-01-21T09:03:37.661Z,64.74
2023-01-21T09:06:07.145Z,65.39
2023-01-21T09:08:36.405Z,65.60
2023-01-21T09:11:06.785Z,65.55
2023-01-21T09:13:37.169Z,65.58
2023-01-21T09:16:09.617Z,66.38
2023-01-21T09:18:42.844Z,65.66
2023-01-21T09:21:15.449Z,65.17
2023-01-21T09:23:44.443Z,65.73
2023-01-21T09:26:15.777Z,65.29
2023-01-21T09:28:45.412Z,66.22
2023-01-21T09:31:15.013Z,64.30
2023-01-21T09:33:46.178Z,65.48
2023-01-21T09:36:15.827Z,63.87
2023-01-21T09:38:43.847Z,63.81
2023-01-21T09:41:23.691Z,65.19
2023-01-21T09:44:00.065Z,63.71
2023-01-21T09:46:34.667Z,64.29
2023-01-21T09:49:07.212Z,65.11
2023-01-21T09:51:46.618Z,63.60
2023-01-21T09:54:20.743Z,63.67
2023-01-21T09:57:11.497Z,64.70
2023-01-21T09:59:52.126Z,63.58
2023-01-21T10:02:29.623Z,62.88
2023-01-21T10:05:18.287Z,63.97
2023-01-21T10:07:54.588Z,63.26
2023-01-21T10:10:30.444Z,63.21
2023-01-21T10:13:15.355Z,63.93
2023-01-21T10:15:52.742Z,62.31
2023-01-21T10:18:26.850Z,63.12
2023-01-21T10:20:59.896Z,63.72
2023-01-21T10:23:33.096Z,62.40
2023-01-21T10:26:02.692Z,62.73
2023-01-21T10:28:31.575Z,63.15
2023-01-21T10:31:04.127Z,62.67
2023-01-21T10:33:34.033Z,62.37
2023-01-21T10:36:20.975Z,63.52
2023-01-21T10:38:57.586Z,61.81
2023-01-21T10:41:38.373Z,63.15
2023-01-21T10:44:19.176Z,62.27
2023-01-21T10:46:53.268Z,61.60
2023-01-21T10:49:31.650Z,61.41
2023-01-21T10:52:07.511Z,61.49
2023-01-21T10:54:48.699Z,62.30
2023-01-21T10:57:29.839Z,63.16
2023-01-21T11:00:01.363Z,62.61
2023-01-21T11:02:32.028Z,61.85
2023-01-21T11:05:03.269Z,63.36
2023-01-21T11:07:37.956Z,62.21
2023-01-21T11:10:07.835Z,62.41
2023-01-21T11:12:36.088Z,62.63
2023-01-21T11:15:14.291Z,63.16
2023-01-21T11:17:45.496Z,63.78
2023-01-21T11:20:23.540Z,64.13
2023-01-21T11:22:52.829Z,65.09
2023-01-21T11:25:32.259Z,63.98
2023-01-21T11:28:00.129Z,62.71
2023-01-21T11:30:49.099Z,62.22
2023-01-21T11:33:26.961Z,62.53
2023-01-21T11:35:56.283Z,63.68
2023-01-21T11:38:33.087Z,62.96
2023-01-21T11:41:03.303Z,63.98
2023-01-21T11:43:36.511Z,64.11
2023-01-21T11:46:22.715Z,62.95
2023-01-21T11:48:50.913Z,62.55
2023-01-21T11:51:18.937Z,62.55
2023-01-21T11:53:48.221Z,61.60
2023-01-21T11:56:17.025Z,62.59
2023-01-21T11:58:45.008Z,64.54
2023-01-21T12:01:22.589Z,62.36
2023-01-21T12:03:53.682Z,62.24
2023-01-21T12:06:24.351Z,63.13
2023-01-21T12:08:57.110Z,62.31
2023-01-21T12:11:28.958Z,62.71
2023-01-21T12:14:03.455Z,61.03
2023-01-21T12:16:36.408Z,61.73
2023-01-21T12:19:19.557Z,62.20
2023-01-21T12:22:09.810Z,61.49
2023-01-21T12:25:01.984Z,62.45
2023-01-21T12:27:38.306Z,62.23
2023-01-21T12:30:17.847Z,61.54
2023-01-21T12:32:49.834Z,62.02
2023-01-21T12:35:25.232Z,62.29
2023-01-21T12:38:00.063Z,60.48
2023-01-21T12:40:34.395Z,61.61
2023-01-21T12:43:09.552Z,60.99
2023-01-21T12:45:40.996Z,61.69
2023-01-21T12:48:18.171Z,60.25
2023-01-21T12:50:52.524Z,61.30
2023-01-21T12:53:27.687Z,60.12
2023-01-21T12:56:15.500Z,61.16
2023-01-21T12:58:47.552Z,60.19
2023-01-21T13:01:20.616Z,60.58
2023-01-21T13:03:58.121Z,61.16
2023-01-21T13:06:51.957Z,60.90
2023-01-21T13:09:30.296Z,60.77
2023-01-21T13:12:04.651Z,60.65
2023-01-21T13:14:37.205Z,60.26
2023-01-21T13:17:12.486Z,60.37
2023-01-21T13:19:40.430Z,61.23
2023-01-21T13:22:19.187Z,59.21
2023-01-21T13:25:05.742Z,60.01
2023-01-21T13:27:44.233Z,60.31
2023-01-21T13:30:24.729Z,60.72
2023-01-21T13:33:00.199Z,61.27
2023-01-21T13:35:38.703Z,60.40
2023-01-21T13:38:16.041Z,60.87
2023-01-21T13:40:54.605Z,61.91
2023-01-21T13:43:44.159Z,62.17
2023-01-21T13:46:26.127Z,62.02
2023-01-21T13:49:06.285Z,60.37
2023-01-21T13:51:59.180Z,59.96
2023-01-21T13:54:52.763Z,60.69
2023-01-21T13:57:36.130Z,61.79
2023-01-21T14:00:12.800Z,61.15
2023-01-21T14:02:48.001Z,60.63
2023-01-21T14:05:22.630Z,62.02
2023-01-21T14:07:55.825Z,61.63
2023-01-21T14:10:26.979Z,61.12
2023-01-21T14:13:20.020Z,60.62
2023-01-21T14:16:02.548Z,61.19
2023-01-21T14:18:57.748Z,61.37
2023-01-21T14:21:52.063Z,61.06
2023-01-21T14:24:34.961Z,60.19
2023-01-21T14:27:14.955Z,60.48
2023-01-21T14:29:46.735Z,60.33
2023-01-21T14:32:23.340Z,61.50
2023-01-21T14:35:03.658Z,60.18
2023-01-21T14:37:36.108Z,60.38
2023-01-21T14:40:17.295Z,60.93
2023-01-21T14:42:49.134Z,59.73
2023-01-21T14:45:20.486Z,61.13
2023-01-21T14:47:51.820Z,60.47
2023-01-21T14:50:46.441Z,58.81
2023-01-21T14:53:21.542Z,59.53
2023-01-21T14:56:08.589Z,59.78
2023-01-21T14:58:37.865Z,59.19
2023-01-21T15:01:07.990Z,58.70
2023-01-21T15:03:49.181Z,58.78
2023-01-21T15:06:21.260Z,58.91
2023-01-21T15:08:52.531Z,57.96
2023-01-21T15:11:22.877Z,58.74
2023-01-21T15:14:04.008Z,60.47
2023-01-21T15:16:36.797Z,60.92
2023-01-21T15:19:34.631Z,61.51
2023-01-21T15:22:39.744Z,61.49
2023-01-21T15:25:31.519Z,63.54
2023-01-21T15:28:33.213Z,63.27
2023-01-21T15:31:03.312Z,64.70
2023-01-21T15:33:32.547Z,63.47
2023-01-21T15:36:02.954Z,64.84
2023-01-21T15:38:31.184Z,68.47
2023-01-21T15:41:04.931Z,69.70
2023-01-21T15:43:42.885Z,70.22
2023-01-21T15:46:27.067Z,69.98
2023-01-21T15:49:19.152Z,73.31
2023-01-21T15:52:01.774Z,73.68
2023-01-21T15:54:36.488Z,74.68
2023-01-21T15:57:21.747Z,75.17
2023-01-21T16:00:12.841Z,73.76
2023-01-21T16:02:53.249Z,74.03
2023-01-21T16:05:29.021Z,74.44
2023-01-21T16:08:08.333Z,74.79
2023-01-21T16:10:43.277Z,73.94
2023-01-21T16:13:17.982Z,75.88
2023-01-21T16:16:00.742Z,76.85
2023-01-21T16:18:35.556Z,76.38
2023-01-21T16:21:04.784Z,75.54
2023-01-21T16:23:41.542Z,76.05
2023-01-21T16:26:09.613Z,77.32
2023-01-21T16:28:46.189Z,79.19
2023-01-21T16:31:14.154Z,77.59
2023-01-21T16:33:43.030Z,77.04
2023-01-21T16:36:14.271Z,79.68
2023-01-21T16:38:45.649Z,78.77
2023-01-21T16:41:24.154Z,78.95
2023-01-21T16:43:55.361Z,78.45
2023-01-21T16:46:26.840Z,78.46
2023-01-21T16:48:57.367Z,79.35
2023-01-21T16:51:29.731Z,77.74
2023-01-21T16:54:30.119Z,79.39
2023-01-21T16:57:00.546Z,78.76
2023-01-21T16:59:31.217Z,80.01
2023-01-21T17:02:00.870Z,78.43
2023-01-21T17:04:30.221Z,76.96
2023-01-21T17:06:59.277Z,76.65
2023-01-21T17:09:32.116Z,78.04
2023-01-21T17:12:04.810Z,79.69
2023-01-21T17:14:34.411Z,79.70
2023-01-21T17:17:07.264Z,78.82
2023-01-21T17:19:38.058Z,79.60
2023-01-21T17:22:14.689Z,81.25
2023-01-21T17:25:00.337Z,81.30
2023-01-21T17:27:29.940Z,80.85
2023-01-21T17:30:18.261Z,79.63
2023-01-21T17:32:53.459Z,80.11
2023-01-21T17:35:23.830Z,80.46
2023-01-21T17:37:56.942Z,81.10
2023-01-21T17:40:28.858Z,80.03
2023-01-21T17:42:58.145Z,80.64
2023-01-21T17:45:31.136Z,80.74
2023-01-21T17:48:11.022Z,81.34
2023-01-21T17:50:46.031Z,80.85
2023-01-21T17:53:20.833Z,79.51
2023-01-21T17:56:00.210Z,81.63
2023-01-21T17:58:51.191Z,80.78
2023-01-21T18:01:20.233Z,81.27
2023-01-21T18:03:48.080Z,81.17
2023-01-21T18:06:21.876Z,81.97
2023-01-21T18:08:50.969Z,82.41
2023-01-21T18:11:19.211Z,82.34
2023-01-21T18:13:47.073Z,81.78
2023-01-21T18:16:16.654Z,81.51
2023-01-21T18:18:45.130Z,82.03
2023-01-21T18:21:20.928Z,82.77
2023-01-21T18:23:49.230Z,81.95
2023-01-21T18:26:27.970Z,81.03
2023-01-21T18:28:55.865Z,83.08
2023-01-21T18:31:25.296Z,82.27
2023-01-21T18:33:53.304Z,82.01
2023-01-21T18:36:21.380Z,81.80
2023-01-21T18:38:49.271Z,82.26
2023-01-21T18:41:17.108Z,82.43
2023-01-21T18:43:44.978Z,82.36
2023-01-21T18:46:13.783Z,81.16
2023-01-21T18:48:43.221Z,80.63
2023-01-21T18:51:11.300Z,81.58
2023-01-21T18:53:39.300Z,81.98
2023-01-21T18:56:13.638Z,81.72
2023-01-21T18:58:41.577Z,81.83
2023-01-21T19:01:21.971Z,81.34
2023-01-21T19:03:53.978Z,82.29
2023-01-21T19:06:24.589Z,81.48
2023-01-21T19:08:52.557Z,82.14
2023-01-21T19:11:20.488Z,82.29
2023-01-21T19:13:48.420Z,82.68
2023-01-21T19:16:18.956Z,81.22
2023-01-21T19:18:47.158Z,82.38
2023-01-21T19:21:16.466Z,82.42
2023-01-21T19:23:44.624Z,81.79
2023-01-21T19:26:14.832Z,80.57
2023-01-21T19:28:43.240Z,80.47
2023-01-21T19:31:11.318Z,81.37
2023-01-21T19:33:41.927Z,81.48
2023-01-21T19:36:15.997Z,80.63
2023-01-21T19:38:52.215Z,81.28
2023-01-21T19:41:20.106Z,82.10
2023-01-21T19:43:47.988Z,81.70
2023-01-21T19:46:16.113Z,81.82
2023-01-21T19:48:44.105Z,81.20
2023-01-21T19:51:12.196Z,82.05
2023-01-21T19:53:40.071Z,81.38
2023-01-21T19:56:17.442Z,83.10
2023-01-21T19:58:45.548Z,82.05
2023-01-21T20:01:13.626Z,81.16
2023-01-21T20:03:54.549Z,81.27
2023-01-21T20:06:26.934Z,81.69
2023-01-21T20:08:54.941Z,80.97
2023-01-21T20:11:24.193Z,82.22
2023-01-21T20:13:52.183Z,81.37
2023-01-21T20:16:21.022Z,81.26
2023-01-21T20:18:49.840Z,80.17
2023-01-21T20:21:18.051Z,81.07
2023-01-21T20:23:45.955Z,80.46
2023-01-21T20:26:17.801Z,79.42
2023-01-21T20:28:51.433Z,80.10
2023-01-21T20:31:19.887Z,79.58
2023-01-21T20:33:49.157Z,80.86
2023-01-21T20:36:21.022Z,80.75
2023-01-21T20:38:49.172Z,79.43
2023-01-21T20:41:17.264Z,80.27
2023-01-21T20:43:45.188Z,79.74
2023-01-21T20:46:18.282Z,79.69
2023-01-21T20:48:46.484Z,80.02
2023-01-21T20:51:14.440Z,80.15
2023-01-21T20:53:42.357Z,79.59
2023-01-21T20:56:18.567Z,79.96
2023-01-21T20:58:47.969Z,79.28
2023-01-21T21:01:19.627Z,79.07
2023-01-21T21:03:47.838Z,79.14
2023-01-21T21:06:18.626Z,80.90
2023-01-21T21:08:47.173Z,80.29
2023-01-21T21:11:16.931Z,79.85
2023-01-21T21:13:47.639Z,80.72
2023-01-21T21:16:22.976Z,80.52
2023-01-21T21:18:51.303Z,81.63
2023-01-21T21:21:22.469Z,80.18
2023-01-21T21:23:52.292Z,80.79
2023-01-21T21:26:23.024Z,82.01
2023-01-21T21:28:54.615Z,79.26
2023-01-21T21:31:25.564Z,79.56
2023-01-21T21:33:53.763Z,79.42
2023-01-21T21:36:24.607Z,79.00
2023-01-21T21:38:55.737Z,80.26
2023-01-21T21:41:44.307Z,79.10
2023-01-21T21:44:13.082Z,78.81
2023-01-21T21:47:00.154Z,78.07
2023-01-21T21:49:28.777Z,76.77
2023-01-21T21:51:56.973Z,78.64
2023-01-21T21:54:24.968Z,78.55
2023-01-21T21:56:52.988Z,80.15
2023-01-21T21:59:21.047Z,77.37
2023-01-21T22:01:50.373Z,77.77
2023-01-21T22:04:18.265Z,77.90
2023-01-21T22:06:46.128Z,78.32
2023-01-21T22:09:14.433Z,77.92
2023-01-21T22:11:42.372Z,79.93
2023-01-21T22:14:10.238Z,78.77
2023-01-21T22:16:38.873Z,78.55
2023-01-21T22:19:08.239Z,78.47
2023-01-21T22:21:36.260Z,78.85
2023-01-21T22:24:06.807Z,78.49
2023-01-21T22:26:35.765Z,78.66
2023-01-21T22:29:04.245Z,78.40
2023-01-21T22:31:33.294Z,80.58
2023-01-21T22:34:01.888Z,79.02
2023-01-21T22:36:31.813Z,80.02
2023-01-21T22:39:00.396Z,79.52
2023-01-21T22:41:29.039Z,79.60
2023-01-21T22:43:57.041Z,79.21
2023-01-21T22:46:26.747Z,78.71
2023-01-21T22:48:55.387Z,79.02
2023-01-21T22:51:24.104Z,79.53
2023-01-21T22:53:54.438Z,79.45
2023-01-21T22:56:39.893Z,79.84
2023-01-21T22:59:12.492Z,78.30
2023-01-21T23:01:40.548Z,76.95
2023-01-21T23:04:08.494Z,78.56
2023-01-21T23:06:37.856Z,78.24
2023-01-21T23:09:09.561Z,79.58
2023-01-21T23:11:39.620Z,78.43
2023-01-21T23:14:08.975Z,78.02
2023-01-21T23:16:37.184Z,76.96
2023-01-21T23:19:05.082Z,77.90
2023-01-21T23:21:33.141Z,76.37
2023-01-21T23:24:01.039Z,78.64
2023-01-21T23:26:30.585Z,77.50
2023-01-21T23:28:58.785Z,78.09
2023-01-21T23:31:26.929Z,77.69
2023-01-21T23:33:57.173Z,77.18
2023-01-21T23:36:25.138Z,78.21
2023-01-21T23:38:53.023Z,77.78
2023-01-21T23:41:21.241Z,76.16
2023-01-21T23:43:50.712Z,77.26
2023-01-21T23:46:19.726Z,77.82
2023-01-21T23:48:47.940Z,76.26
2023-01-21T23:51:17.610Z,77.40
2023-01-21T23:53:45.927Z,77.02
2023-01-21T23:56:16.461Z,78.17
2023-01-21T23:58:44.439Z,78.53
